sensor_id;sensor_type;location;lat;lon;timestamp;P1;durP1;ratioP1;P2;durP2;ratioP2
58661;SDS011;44432;49.786;22.760;2023-07-16T00:02:10;9.50;;;8.40;;
58661;SDS011;44432;49.786;22.760;2023-07-16T00:04:41;10.30;;;8.90;;
58661;SDS011;44432;49.786;22.760;2023-07-16T00:07:11;12.10;;;8.90;;
58661;SDS011;44432;49.786;22.760;2023-07-16T00:09:43;11.50;;;8.60;;
58661;SDS011;44432;49.786;22.760;2023-07-16T00:12:14;11.30;;;8.40;;
58661;SDS011;44432;49.786;22.760;2023-07-16T00:14:44;9.80;;;8.90;;
58661;SDS011;44432;49.786;22.760;2023-07-16T00:17:16;12.80;;;9.10;;
58661;SDS011;44432;49.786;22.760;2023-07-16T00:19:46;12.80;;;9.00;;
58661;SDS011;44432;49.786;22.760;2023-07-16T00:22:17;11.40;;;10.00;;
58661;SDS011;44432;49.786;22.760;2023-07-16T00:24:47;11.60;;;9.50;;
58661;SDS011;44432;49.786;22.760;2023-07-16T00:27:18;10.70;;;9.40;;
58661;SDS011;44432;49.786;22.760;2023-07-16T00:29:49;11.70;;;9.70;;
58661;SDS011;44432;49.786;22.760;2023-07-16T00:32:19;12.30;;;9.90;;
58661;SDS011;44432;49.786;22.760;2023-07-16T00:34:50;11.50;;;9.20;;
58661;SDS011;44432;49.786;22.760;2023-07-16T00:37:21;10.90;;;9.00;;
58661;SDS011;44432;49.786;22.760;2023-07-16T00:39:51;14.30;;;10.00;;
58661;SDS011;44432;49.786;22.760;2023-07-16T00:42:22;11.80;;;10.10;;
58661;SDS011;44432;49.786;22.760;2023-07-16T00:44:52;11.60;;;10.00;;
58661;SDS011;44432;49.786;22.760;2023-07-16T00:47:23;14.90;;;9.10;;
58661;SDS011;44432;49.786;22.760;2023-07-16T00:49:54;11.00;;;9.70;;
58661;SDS011;44432;49.786;22.760;2023-07-16T00:52:24;12.90;;;10.00;;
58661;SDS011;44432;49.786;22.760;2023-07-16T00:54:56;11.90;;;9.70;;
58661;SDS011;44432;49.786;22.760;2023-07-16T00:57:27;11.70;;;9.70;;
58661;SDS011;44432;49.786;22.760;2023-07-16T00:59:58;14.20;;;8.80;;
58661;SDS011;44432;49.786;22.760;2023-07-16T01:02:28;11.20;;;9.40;;
58661;SDS011;44432;49.786;22.760;2023-07-16T01:04:59;12.30;;;9.30;;
58661;SDS011;44432;49.786;22.760;2023-07-16T01:07:30;11.00;;;9.20;;
58661;SDS011;44432;49.786;22.760;2023-07-16T01:10:02;11.50;;;9.00;;
58661;SDS011;44432;49.786;22.760;2023-07-16T01:12:33;10.50;;;9.30;;
58661;SDS011;44432;49.786;22.760;2023-07-16T01:15:05;10.30;;;8.30;;
58661;SDS011;44432;49.786;22.760;2023-07-16T01:17:37;10.20;;;8.30;;
58661;SDS011;44432;49.786;22.760;2023-07-16T01:20:09;12.50;;;8.40;;
58661;SDS011;44432;49.786;22.760;2023-07-16T01:22:46;9.60;;;8.60;;
58661;SDS011;44432;49.786;22.760;2023-07-16T01:28:48;12.70;;;8.50;;
58661;SDS011;44432;49.786;22.760;2023-07-16T01:31:24;10.40;;;8.90;;
58661;SDS011;44432;49.786;22.760;2023-07-16T01:33:55;9.40;;;8.30;;
58661;SDS011;44432;49.786;22.760;2023-07-16T01:36:28;11.90;;;8.80;;
58661;SDS011;44432;49.786;22.760;2023-07-16T01:39:00;10.70;;;8.70;;
58661;SDS011;44432;49.786;22.760;2023-07-16T01:41:31;11.70;;;8.50;;
58661;SDS011;44432;49.786;22.760;2023-07-16T01:44:01;11.80;;;8.70;;
58661;SDS011;44432;49.786;22.760;2023-07-16T01:46:32;13.30;;;9.10;;
58661;SDS011;44432;49.786;22.760;2023-07-16T01:49:03;11.50;;;9.10;;
58661;SDS011;44432;49.786;22.760;2023-07-16T01:51:34;15.00;;;9.70;;
58661;SDS011;44432;49.786;22.760;2023-07-16T01:54:05;9.50;;;8.30;;
58661;SDS011;44432;49.786;22.760;2023-07-16T01:56:35;12.60;;;7.70;;
58661;SDS011;44432;49.786;22.760;2023-07-16T01:59:06;10.50;;;8.70;;
58661;SDS011;44432;49.786;22.760;2023-07-16T02:01:36;11.40;;;8.10;;
58661;SDS011;44432;49.786;22.760;2023-07-16T02:04:07;10.00;;;7.50;;
58661;SDS011;44432;49.786;22.760;2023-07-16T02:06:37;10.20;;;7.60;;
58661;SDS011;44432;49.786;22.760;2023-07-16T02:09:08;10.30;;;8.00;;
58661;SDS011;44432;49.786;22.760;2023-07-16T02:11:39;10.80;;;7.90;;
58661;SDS011;44432;49.786;22.760;2023-07-16T02:14:10;11.00;;;7.50;;
58661;SDS011;44432;49.786;22.760;2023-07-16T02:16:41;9.90;;;6.80;;
58661;SDS011;44432;49.786;22.760;2023-07-16T02:19:12;9.60;;;7.40;;
58661;SDS011;44432;49.786;22.760;2023-07-16T02:21:42;10.30;;;7.40;;
58661;SDS011;44432;49.786;22.760;2023-07-16T02:24:13;10.90;;;7.50;;
58661;SDS011;44432;49.786;22.760;2023-07-16T02:26:44;10.20;;;8.40;;
58661;SDS011;44432;49.786;22.760;2023-07-16T02:29:14;8.50;;;7.60;;
58661;SDS011;44432;49.786;22.760;2023-07-16T02:31:45;12.20;;;8.00;;
58661;SDS011;44432;49.786;22.760;2023-07-16T02:34:16;10.70;;;8.10;;
58661;SDS011;44432;49.786;22.760;2023-07-16T02:36:46;9.70;;;7.40;;
58661;SDS011;44432;49.786;22.760;2023-07-16T02:39:17;12.30;;;7.80;;
58661;SDS011;44432;49.786;22.760;2023-07-16T02:41:47;9.40;;;7.90;;
58661;SDS011;44432;49.786;22.760;2023-07-16T02:44:18;10.20;;;8.00;;
58661;SDS011;44432;49.786;22.760;2023-07-16T02:46:49;12.10;;;8.10;;
58661;SDS011;44432;49.786;22.760;2023-07-16T02:49:19;10.50;;;6.80;;
58661;SDS011;44432;49.786;22.760;2023-07-16T02:51:50;10.50;;;7.50;;
58661;SDS011;44432;49.786;22.760;2023-07-16T02:54:21;8.80;;;7.60;;
58661;SDS011;44432;49.786;22.760;2023-07-16T02:56:51;8.50;;;7.60;;
58661;SDS011;44432;49.786;22.760;2023-07-16T02:59:22;9.80;;;7.80;;
58661;SDS011;44432;49.786;22.760;2023-07-16T03:01:53;10.20;;;7.00;;
58661;SDS011;44432;49.786;22.760;2023-07-16T03:04:24;11.10;;;8.70;;
58661;SDS011;44432;49.786;22.760;2023-07-16T03:06:54;12.70;;;7.70;;
58661;SDS011;44432;49.786;22.760;2023-07-16T03:09:25;9.60;;;7.50;;
58661;SDS011;44432;49.786;22.760;2023-07-16T03:11:56;9.30;;;8.10;;
58661;SDS011;44432;49.786;22.760;2023-07-16T03:14:26;10.10;;;8.60;;
58661;SDS011;44432;49.786;22.760;2023-07-16T03:16:57;13.10;;;10.30;;
58661;SDS011;44432;49.786;22.760;2023-07-16T03:19:27;13.10;;;9.60;;
58661;SDS011;44432;49.786;22.760;2023-07-16T03:21:58;11.50;;;9.90;;
58661;SDS011;44432;49.786;22.760;2023-07-16T03:24:30;9.70;;;8.50;;
58661;SDS011;44432;49.786;22.760;2023-07-16T03:27:01;10.00;;;8.30;;
58661;SDS011;44432;49.786;22.760;2023-07-16T03:29:32;10.10;;;8.30;;
58661;SDS011;44432;49.786;22.760;2023-07-16T03:32:03;11.10;;;8.20;;
58661;SDS011;44432;49.786;22.760;2023-07-16T03:34:34;9.90;;;7.70;;
58661;SDS011;44432;49.786;22.760;2023-07-16T03:37:05;11.10;;;7.80;;
58661;SDS011;44432;49.786;22.760;2023-07-16T03:39:36;10.70;;;8.10;;
58661;SDS011;44432;49.786;22.760;2023-07-16T03:42:06;9.60;;;7.80;;
58661;SDS011;44432;49.786;22.760;2023-07-16T03:44:37;10.80;;;7.90;;
58661;SDS011;44432;49.786;22.760;2023-07-16T03:47:07;10.50;;;8.00;;
58661;SDS011;44432;49.786;22.760;2023-07-16T03:49:38;11.70;;;8.00;;
58661;SDS011;44432;49.786;22.760;2023-07-16T03:52:09;12.40;;;7.80;;
58661;SDS011;44432;49.786;22.760;2023-07-16T03:54:39;10.20;;;7.10;;
58661;SDS011;44432;49.786;22.760;2023-07-16T03:57:10;9.70;;;6.60;;
58661;SDS011;44432;49.786;22.760;2023-07-16T03:59:41;9.20;;;7.20;;
58661;SDS011;44432;49.786;22.760;2023-07-16T04:02:12;8.40;;;7.40;;
58661;SDS011;44432;49.786;22.760;2023-07-16T04:04:42;10.10;;;7.30;;
58661;SDS011;44432;49.786;22.760;2023-07-16T04:07:13;9.90;;;7.70;;
58661;SDS011;44432;49.786;22.760;2023-07-16T04:09:44;7.90;;;7.00;;
58661;SDS011;44432;49.786;22.760;2023-07-16T04:12:15;8.60;;;7.00;;
58661;SDS011;44432;49.786;22.760;2023-07-16T04:14:45;7.80;;;7.00;;
58661;SDS011;44432;49.786;22.760;2023-07-16T04:17:16;8.50;;;6.70;;
58661;SDS011;44432;49.786;22.760;2023-07-16T04:19:47;8.90;;;6.80;;
58661;SDS011;44432;49.786;22.760;2023-07-16T04:22:17;8.30;;;5.70;;
58661;SDS011;44432;49.786;22.760;2023-07-16T04:24:48;8.60;;;5.60;;
58661;SDS011;44432;49.786;22.760;2023-07-16T04:27:18;8.90;;;5.90;;
58661;SDS011;44432;49.786;22.760;2023-07-16T04:29:49;8.60;;;6.10;;
58661;SDS011;44432;49.786;22.760;2023-07-16T04:32:20;7.20;;;5.60;;
58661;SDS011;44432;49.786;22.760;2023-07-16T04:34:51;9.30;;;5.50;;
58661;SDS011;44432;49.786;22.760;2023-07-16T04:37:21;8.90;;;5.70;;
58661;SDS011;44432;49.786;22.760;2023-07-16T04:39:52;9.90;;;5.40;;
58661;SDS011;44432;49.786;22.760;2023-07-16T04:42:22;7.90;;;5.00;;
58661;SDS011;44432;49.786;22.760;2023-07-16T04:44:53;9.50;;;5.80;;
58661;SDS011;44432;49.786;22.760;2023-07-16T04:47:24;9.90;;;5.50;;
58661;SDS011;44432;49.786;22.760;2023-07-16T04:49:55;6.30;;;5.30;;
58661;SDS011;44432;49.786;22.760;2023-07-16T04:52:26;7.40;;;5.00;;
58661;SDS011;44432;49.786;22.760;2023-07-16T04:54:57;7.00;;;5.10;;
58661;SDS011;44432;49.786;22.760;2023-07-16T04:57:27;8.90;;;4.80;;
58661;SDS011;44432;49.786;22.760;2023-07-16T04:59:58;6.10;;;5.00;;
58661;SDS011;44432;49.786;22.760;2023-07-16T05:02:29;7.90;;;5.00;;
58661;SDS011;44432;49.786;22.760;2023-07-16T05:04:59;8.00;;;4.90;;
58661;SDS011;44432;49.786;22.760;2023-07-16T05:07:30;6.80;;;4.30;;
58661;SDS011;44432;49.786;22.760;2023-07-16T05:10:00;8.90;;;4.90;;
58661;SDS011;44432;49.786;22.760;2023-07-16T05:12:31;6.60;;;4.50;;
58661;SDS011;44432;49.786;22.760;2023-07-16T05:15:02;6.20;;;4.60;;
58661;SDS011;44432;49.786;22.760;2023-07-16T05:17:34;6.80;;;4.50;;
58661;SDS011;44432;49.786;22.760;2023-07-16T05:20:05;6.70;;;4.40;;
58661;SDS011;44432;49.786;22.760;2023-07-16T05:25:07;9.40;;;4.60;;
58661;SDS011;44432;49.786;22.760;2023-07-16T05:27:38;8.70;;;4.80;;
58661;SDS011;44432;49.786;22.760;2023-07-16T05:30:09;6.40;;;4.30;;
58661;SDS011;44432;49.786;22.760;2023-07-16T05:32:40;7.50;;;4.40;;
58661;SDS011;44432;49.786;22.760;2023-07-16T05:35:11;9.70;;;4.90;;
58661;SDS011;44432;49.786;22.760;2023-07-16T05:37:42;8.80;;;4.50;;
58661;SDS011;44432;49.786;22.760;2023-07-16T05:40:12;5.90;;;4.40;;
58661;SDS011;44432;49.786;22.760;2023-07-16T05:42:43;5.00;;;4.00;;
58661;SDS011;44432;49.786;22.760;2023-07-16T05:45:14;6.20;;;4.40;;
58661;SDS011;44432;49.786;22.760;2023-07-16T05:47:44;7.40;;;4.30;;
58661;SDS011;44432;49.786;22.760;2023-07-16T05:50:15;5.70;;;4.30;;
58661;SDS011;44432;49.786;22.760;2023-07-16T05:52:46;7.30;;;4.70;;
58661;SDS011;44432;49.786;22.760;2023-07-16T05:55:17;7.80;;;4.10;;
58661;SDS011;44432;49.786;22.760;2023-07-16T05:57:47;5.90;;;4.40;;
58661;SDS011;44432;49.786;22.760;2023-07-16T06:00:19;5.30;;;4.10;;
58661;SDS011;44432;49.786;22.760;2023-07-16T06:02:50;6.90;;;4.60;;
58661;SDS011;44432;49.786;22.760;2023-07-16T06:05:21;7.00;;;4.80;;
58661;SDS011;44432;49.786;22.760;2023-07-16T06:07:52;7.60;;;4.50;;
58661;SDS011;44432;49.786;22.760;2023-07-16T06:10:22;6.70;;;4.10;;
58661;SDS011;44432;49.786;22.760;2023-07-16T06:12:53;5.30;;;4.20;;
58661;SDS011;44432;49.786;22.760;2023-07-16T06:15:24;8.40;;;5.10;;
58661;SDS011;44432;49.786;22.760;2023-07-16T06:17:55;7.40;;;4.20;;
58661;SDS011;44432;49.786;22.760;2023-07-16T06:20:25;7.30;;;4.30;;
58661;SDS011;44432;49.786;22.760;2023-07-16T06:22:56;6.20;;;4.30;;
58661;SDS011;44432;49.786;22.760;2023-07-16T06:25:27;5.50;;;4.00;;
58661;SDS011;44432;49.786;22.760;2023-07-16T06:27:58;6.30;;;3.70;;
58661;SDS011;44432;49.786;22.760;2023-07-16T06:30:28;7.50;;;4.00;;
58661;SDS011;44432;49.786;22.760;2023-07-16T06:33:00;5.20;;;3.80;;
58661;SDS011;44432;49.786;22.760;2023-07-16T06:35:31;5.10;;;3.90;;
58661;SDS011;44432;49.786;22.760;2023-07-16T06:38:02;9.10;;;3.50;;
58661;SDS011;44432;49.786;22.760;2023-07-16T06:40:32;5.60;;;3.90;;
58661;SDS011;44432;49.786;22.760;2023-07-16T06:43:03;5.20;;;3.60;;
58661;SDS011;44432;49.786;22.760;2023-07-16T06:45:34;7.00;;;3.80;;
58661;SDS011;44432;49.786;22.760;2023-07-16T06:48:05;6.40;;;3.70;;
58661;SDS011;44432;49.786;22.760;2023-07-16T06:50:36;6.30;;;4.30;;
58661;SDS011;44432;49.786;22.760;2023-07-16T06:53:07;6.80;;;3.60;;
58661;SDS011;44432;49.786;22.760;2023-07-16T06:55:37;5.30;;;3.50;;
58661;SDS011;44432;49.786;22.760;2023-07-16T06:58:09;6.50;;;3.40;;
58661;SDS011;44432;49.786;22.760;2023-07-16T07:00:42;7.40;;;3.80;;
58661;SDS011;44432;49.786;22.760;2023-07-16T07:03:13;5.20;;;3.70;;
58661;SDS011;44432;49.786;22.760;2023-07-16T07:05:44;5.40;;;3.60;;
58661;SDS011;44432;49.786;22.760;2023-07-16T07:08:14;6.40;;;3.40;;
58661;SDS011;44432;49.786;22.760;2023-07-16T07:10:45;4.90;;;3.70;;
58661;SDS011;44432;49.786;22.760;2023-07-16T07:13:17;5.80;;;3.50;;
58661;SDS011;44432;49.786;22.760;2023-07-16T07:15:47;4.70;;;3.20;;
58661;SDS011;44432;49.786;22.760;2023-07-16T07:18:18;7.30;;;3.00;;
58661;SDS011;44432;49.786;22.760;2023-07-16T07:20:49;4.30;;;3.10;;
58661;SDS011;44432;49.786;22.760;2023-07-16T07:23:20;6.50;;;3.50;;
58661;SDS011;44432;49.786;22.760;2023-07-16T07:25:51;4.20;;;3.20;;
58661;SDS011;44432;49.786;22.760;2023-07-16T07:28:22;4.60;;;2.80;;
58661;SDS011;44432;49.786;22.760;2023-07-16T07:30:52;8.30;;;3.20;;
58661;SDS011;44432;49.786;22.760;2023-07-16T07:33:23;5.00;;;3.00;;
58661;SDS011;44432;49.786;22.760;2023-07-16T07:35:54;9.40;;;3.50;;
58661;SDS011;44432;49.786;22.760;2023-07-16T07:38:25;6.90;;;4.00;;
58661;SDS011;44432;49.786;22.760;2023-07-16T07:40:56;6.10;;;4.10;;
58661;SDS011;44432;49.786;22.760;2023-07-16T07:43:27;7.90;;;4.20;;
58661;SDS011;44432;49.786;22.760;2023-07-16T07:45:58;4.40;;;3.10;;
58661;SDS011;44432;49.786;22.760;2023-07-16T07:48:28;5.60;;;2.80;;
58661;SDS011;44432;49.786;22.760;2023-07-16T07:50:59;5.20;;;3.00;;
58661;SDS011;44432;49.786;22.760;2023-07-16T07:53:30;4.80;;;2.90;;
58661;SDS011;44432;49.786;22.760;2023-07-16T07:56:00;5.60;;;3.10;;
58661;SDS011;44432;49.786;22.760;2023-07-16T07:58:31;4.10;;;3.10;;
58661;SDS011;44432;49.786;22.760;2023-07-16T08:01:05;4.50;;;3.20;;
58661;SDS011;44432;49.786;22.760;2023-07-16T08:03:36;5.90;;;2.80;;
58661;SDS011;44432;49.786;22.760;2023-07-16T08:06:07;5.00;;;2.70;;
58661;SDS011;44432;49.786;22.760;2023-07-16T08:08:39;7.00;;;3.10;;
58661;SDS011;44432;49.786;22.760;2023-07-16T08:11:10;4.90;;;2.70;;
58661;SDS011;44432;49.786;22.760;2023-07-16T08:13:41;5.70;;;3.10;;
58661;SDS011;44432;49.786;22.760;2023-07-16T08:16:12;5.10;;;2.70;;
58661;SDS011;44432;49.786;22.760;2023-07-16T08:18:42;3.70;;;2.70;;
58661;SDS011;44432;49.786;22.760;2023-07-16T08:21:13;5.50;;;3.00;;
58661;SDS011;44432;49.786;22.760;2023-07-16T08:23:48;4.20;;;2.70;;
58661;SDS011;44432;49.786;22.760;2023-07-16T08:26:19;4.40;;;2.50;;
58661;SDS011;44432;49.786;22.760;2023-07-16T08:28:49;4.60;;;2.70;;
58661;SDS011;44432;49.786;22.760;2023-07-16T08:31:20;8.40;;;2.90;;
58661;SDS011;44432;49.786;22.760;2023-07-16T08:33:51;5.50;;;2.60;;
58661;SDS011;44432;49.786;22.760;2023-07-16T08:36:21;4.40;;;2.20;;
58661;SDS011;44432;49.786;22.760;2023-07-16T08:38:52;5.00;;;2.20;;
58661;SDS011;44432;49.786;22.760;2023-07-16T08:41:23;3.50;;;2.40;;
58661;SDS011;44432;49.786;22.760;2023-07-16T08:43:53;4.40;;;2.20;;
58661;SDS011;44432;49.786;22.760;2023-07-16T08:46:25;3.60;;;2.10;;
58661;SDS011;44432;49.786;22.760;2023-07-16T08:48:56;9.10;;;2.50;;
58661;SDS011;44432;49.786;22.760;2023-07-16T08:51:28;6.90;;;3.50;;
58661;SDS011;44432;49.786;22.760;2023-07-16T08:54:00;5.40;;;2.40;;
58661;SDS011;44432;49.786;22.760;2023-07-16T08:56:30;4.40;;;2.00;;
58661;SDS011;44432;49.786;22.760;2023-07-16T08:59:01;5.20;;;2.40;;
58661;SDS011;44432;49.786;22.760;2023-07-16T09:01:32;4.90;;;2.40;;
58661;SDS011;44432;49.786;22.760;2023-07-16T09:04:03;3.40;;;2.20;;
58661;SDS011;44432;49.786;22.760;2023-07-16T09:06:34;4.10;;;2.10;;
58661;SDS011;44432;49.786;22.760;2023-07-16T09:09:05;4.20;;;2.20;;
58661;SDS011;44432;49.786;22.760;2023-07-16T09:11:35;2.90;;;2.10;;
58661;SDS011;44432;49.786;22.760;2023-07-16T09:14:16;4.10;;;2.30;;
58661;SDS011;44432;49.786;22.760;2023-07-16T09:16:50;6.10;;;2.40;;
58661;SDS011;44432;49.786;22.760;2023-07-16T09:19:22;5.70;;;2.10;;
58661;SDS011;44432;49.786;22.760;2023-07-16T09:21:54;4.80;;;2.10;;
58661;SDS011;44432;49.786;22.760;2023-07-16T09:24:24;6.00;;;2.40;;
58661;SDS011;44432;49.786;22.760;2023-07-16T09:26:55;4.70;;;2.10;;
58661;SDS011;44432;49.786;22.760;2023-07-16T09:29:28;4.00;;;2.20;;
58661;SDS011;44432;49.786;22.760;2023-07-16T09:32:00;4.30;;;2.30;;
58661;SDS011;44432;49.786;22.760;2023-07-16T09:34:31;5.10;;;2.50;;
58661;SDS011;44432;49.786;22.760;2023-07-16T09:37:02;5.30;;;2.10;;
58661;SDS011;44432;49.786;22.760;2023-07-16T09:39:33;3.30;;;2.50;;
58661;SDS011;44432;49.786;22.760;2023-07-16T09:42:04;4.90;;;2.00;;
58661;SDS011;44432;49.786;22.760;2023-07-16T09:44:36;4.20;;;2.20;;
58661;SDS011;44432;49.786;22.760;2023-07-16T09:47:09;5.70;;;2.80;;
58661;SDS011;44432;49.786;22.760;2023-07-16T09:49:40;3.70;;;2.20;;
58661;SDS011;44432;49.786;22.760;2023-07-16T09:52:13;4.50;;;2.40;;
58661;SDS011;44432;49.786;22.760;2023-07-16T09:54:44;3.10;;;2.50;;
58661;SDS011;44432;49.786;22.760;2023-07-16T09:57:17;6.20;;;2.40;;
58661;SDS011;44432;49.786;22.760;2023-07-16T09:59:48;6.10;;;2.50;;
58661;SDS011;44432;49.786;22.760;2023-07-16T10:02:21;4.30;;;2.20;;
58661;SDS011;44432;49.786;22.760;2023-07-16T10:04:52;7.20;;;2.40;;
58661;SDS011;44432;49.786;22.760;2023-07-16T10:07:25;4.30;;;2.20;;
58661;SDS011;44432;49.786;22.760;2023-07-16T10:09:56;4.70;;;2.30;;
58661;SDS011;44432;49.786;22.760;2023-07-16T10:12:27;4.80;;;2.20;;
58661;SDS011;44432;49.786;22.760;2023-07-16T10:14:57;2.70;;;1.90;;
58661;SDS011;44432;49.786;22.760;2023-07-16T10:17:30;5.40;;;2.60;;
58661;SDS011;44432;49.786;22.760;2023-07-16T10:20:03;7.80;;;2.10;;
58661;SDS011;44432;49.786;22.760;2023-07-16T10:22:38;8.10;;;2.60;;
58661;SDS011;44432;49.786;22.760;2023-07-16T10:25:21;3.20;;;2.10;;
58661;SDS011;44432;49.786;22.760;2023-07-16T10:30:23;5.60;;;2.50;;
58661;SDS011;44432;49.786;22.760;2023-07-16T10:32:53;4.90;;;2.20;;
58661;SDS011;44432;49.786;22.760;2023-07-16T10:35:24;3.40;;;1.90;;
58661;SDS011;44432;49.786;22.760;2023-07-16T10:37:55;6.70;;;2.30;;
58661;SDS011;44432;49.786;22.760;2023-07-16T10:40:26;4.10;;;2.70;;
58661;SDS011;44432;49.786;22.760;2023-07-16T10:42:57;8.70;;;3.80;;
58661;SDS011;44432;49.786;22.760;2023-07-16T10:45:28;7.00;;;2.80;;
58661;SDS011;44432;49.786;22.760;2023-07-16T10:47:59;6.30;;;2.30;;
58661;SDS011;44432;49.786;22.760;2023-07-16T10:50:31;2.90;;;2.40;;
58661;SDS011;44432;49.786;22.760;2023-07-16T10:53:02;6.10;;;2.20;;
58661;SDS011;44432;49.786;22.760;2023-07-16T10:55:33;2.60;;;2.10;;
58661;SDS011;44432;49.786;22.760;2023-07-16T10:58:05;4.30;;;2.50;;
58661;SDS011;44432;49.786;22.760;2023-07-16T11:00:38;4.50;;;2.30;;
58661;SDS011;44432;49.786;22.760;2023-07-16T11:03:09;5.20;;;2.40;;
58661;SDS011;44432;49.786;22.760;2023-07-16T11:05:46;6.00;;;2.10;;
58661;SDS011;44432;49.786;22.760;2023-07-16T11:08:22;4.90;;;2.20;;
58661;SDS011;44432;49.786;22.760;2023-07-16T11:10:54;4.90;;;2.40;;
58661;SDS011;44432;49.786;22.760;2023-07-16T11:13:26;2.80;;;2.10;;
58661;SDS011;44432;49.786;22.760;2023-07-16T11:15:57;4.30;;;2.40;;
58661;SDS011;44432;49.786;22.760;2023-07-16T11:18:37;2.60;;;2.30;;
58661;SDS011;44432;49.786;22.760;2023-07-16T11:21:07;3.80;;;2.40;;
58661;SDS011;44432;49.786;22.760;2023-07-16T11:23:38;5.30;;;2.30;;
58661;SDS011;44432;49.786;22.760;2023-07-16T11:26:09;4.80;;;2.40;;
58661;SDS011;44432;49.786;22.760;2023-07-16T11:28:40;6.20;;;2.40;;
58661;SDS011;44432;49.786;22.760;2023-07-16T11:31:12;5.80;;;2.50;;
58661;SDS011;44432;49.786;22.760;2023-07-16T11:33:44;3.30;;;2.10;;
58661;SDS011;44432;49.786;22.760;2023-07-16T11:36:16;4.20;;;2.50;;
58661;SDS011;44432;49.786;22.760;2023-07-16T11:38:46;4.00;;;2.40;;
58661;SDS011;44432;49.786;22.760;2023-07-16T11:41:21;4.50;;;2.30;;
58661;SDS011;44432;49.786;22.760;2023-07-16T11:43:51;8.50;;;2.40;;
58661;SDS011;44432;49.786;22.760;2023-07-16T11:46:22;5.20;;;2.30;;
58661;SDS011;44432;49.786;22.760;2023-07-16T11:48:53;3.30;;;2.30;;
58661;SDS011;44432;49.786;22.760;2023-07-16T11:51:23;4.30;;;2.20;;
58661;SDS011;44432;49.786;22.760;2023-07-16T11:53:55;5.10;;;2.30;;
58661;SDS011;44432;49.786;22.760;2023-07-16T11:58:55;4.30;;;2.60;;
58661;SDS011;44432;49.786;22.760;2023-07-16T12:01:26;3.60;;;2.40;;
58661;SDS011;44432;49.786;22.760;2023-07-16T12:03:56;4.90;;;2.30;;
58661;SDS011;44432;49.786;22.760;2023-07-16T12:06:27;4.20;;;2.30;;
58661;SDS011;44432;49.786;22.760;2023-07-16T12:08:58;5.30;;;2.50;;
58661;SDS011;44432;49.786;22.760;2023-07-16T12:11:28;4.00;;;2.30;;
58661;SDS011;44432;49.786;22.760;2023-07-16T12:13:59;7.20;;;4.10;;
58661;SDS011;44432;49.786;22.760;2023-07-16T12:16:30;5.10;;;2.20;;
58661;SDS011;44432;49.786;22.760;2023-07-16T12:19:00;6.20;;;2.60;;
58661;SDS011;44432;49.786;22.760;2023-07-16T12:21:31;6.20;;;2.50;;
58661;SDS011;44432;49.786;22.760;2023-07-16T12:24:01;5.30;;;2.30;;
58661;SDS011;44432;49.786;22.760;2023-07-16T12:26:33;5.10;;;2.40;;
58661;SDS011;44432;49.786;22.760;2023-07-16T12:29:04;3.10;;;2.40;;
58661;SDS011;44432;49.786;22.760;2023-07-16T12:31:34;20.40;;;4.10;;
58661;SDS011;44432;49.786;22.760;2023-07-16T12:34:05;3.00;;;2.20;;
58661;SDS011;44432;49.786;22.760;2023-07-16T12:36:36;5.10;;;2.60;;
58661;SDS011;44432;49.786;22.760;2023-07-16T12:39:06;5.20;;;2.50;;
58661;SDS011;44432;49.786;22.760;2023-07-16T12:41:37;5.40;;;2.70;;
58661;SDS011;44432;49.786;22.760;2023-07-16T12:44:08;5.70;;;2.30;;
58661;SDS011;44432;49.786;22.760;2023-07-16T12:46:38;4.20;;;2.30;;
58661;SDS011;44432;49.786;22.760;2023-07-16T12:49:09;2.70;;;2.10;;
58661;SDS011;44432;49.786;22.760;2023-07-16T12:51:39;6.80;;;2.30;;
58661;SDS011;44432;49.786;22.760;2023-07-16T12:54:10;4.70;;;2.20;;
58661;SDS011;44432;49.786;22.760;2023-07-16T12:56:41;5.90;;;2.60;;
58661;SDS011;44432;49.786;22.760;2023-07-16T12:59:11;3.40;;;2.10;;
58661;SDS011;44432;49.786;22.760;2023-07-16T13:01:42;5.10;;;2.70;;
58661;SDS011;44432;49.786;22.760;2023-07-16T13:04:12;4.20;;;2.60;;
58661;SDS011;44432;49.786;22.760;2023-07-16T13:06:43;5.20;;;2.30;;
58661;SDS011;44432;49.786;22.760;2023-07-16T13:11:47;3.00;;;2.30;;
58661;SDS011;44432;49.786;22.760;2023-07-16T13:14:19;4.10;;;2.40;;
58661;SDS011;44432;49.786;22.760;2023-07-16T13:16:49;3.30;;;2.40;;
58661;SDS011;44432;49.786;22.760;2023-07-16T13:19:20;5.50;;;2.60;;
58661;SDS011;44432;49.786;22.760;2023-07-16T13:21:50;3.30;;;2.50;;
58661;SDS011;44432;49.786;22.760;2023-07-16T13:24:21;3.80;;;2.20;;
58661;SDS011;44432;49.786;22.760;2023-07-16T13:26:53;5.50;;;2.40;;
58661;SDS011;44432;49.786;22.760;2023-07-16T13:29:24;5.40;;;2.30;;
58661;SDS011;44432;49.786;22.760;2023-07-16T13:31:54;4.20;;;2.60;;
58661;SDS011;44432;49.786;22.760;2023-07-16T13:34:25;5.90;;;2.70;;
58661;SDS011;44432;49.786;22.760;2023-07-16T13:36:56;4.20;;;2.30;;
58661;SDS011;44432;49.786;22.760;2023-07-16T13:39:27;3.10;;;2.50;;
58661;SDS011;44432;49.786;22.760;2023-07-16T13:41:58;5.00;;;2.50;;
58661;SDS011;44432;49.786;22.760;2023-07-16T13:44:28;4.20;;;2.70;;
58661;SDS011;44432;49.786;22.760;2023-07-16T13:46:59;4.20;;;2.50;;
58661;SDS011;44432;49.786;22.760;2023-07-16T13:49:30;5.50;;;2.50;;
58661;SDS011;44432;49.786;22.760;2023-07-16T13:52:01;4.90;;;2.70;;
58661;SDS011;44432;49.786;22.760;2023-07-16T13:54:32;3.50;;;2.20;;
58661;SDS011;44432;49.786;22.760;2023-07-16T13:57:03;5.10;;;2.90;;
58661;SDS011;44432;49.786;22.760;2023-07-16T13:59:34;5.30;;;2.60;;
58661;SDS011;44432;49.786;22.760;2023-07-16T14:02:05;4.90;;;2.70;;
58661;SDS011;44432;49.786;22.760;2023-07-16T14:04:36;2.60;;;2.30;;
58661;SDS011;44432;49.786;22.760;2023-07-16T14:07:07;7.40;;;3.10;;
58661;SDS011;44432;49.786;22.760;2023-07-16T14:09:38;4.60;;;2.80;;
58661;SDS011;44432;49.786;22.760;2023-07-16T14:12:09;7.80;;;2.80;;
58661;SDS011;44432;49.786;22.760;2023-07-16T14:14:40;4.30;;;2.40;;
58661;SDS011;44432;49.786;22.760;2023-07-16T14:17:11;3.30;;;2.40;;
58661;SDS011;44432;49.786;22.760;2023-07-16T14:19:42;4.30;;;2.40;;
58661;SDS011;44432;49.786;22.760;2023-07-16T14:22:13;4.30;;;2.70;;
58661;SDS011;44432;49.786;22.760;2023-07-16T14:24:43;3.20;;;2.30;;
58661;SDS011;44432;49.786;22.760;2023-07-16T14:27:18;5.30;;;2.60;;
58661;SDS011;44432;49.786;22.760;2023-07-16T14:29:50;3.10;;;2.50;;
58661;SDS011;44432;49.786;22.760;2023-07-16T14:32:21;7.90;;;6.10;;
58661;SDS011;44432;49.786;22.760;2023-07-16T14:34:53;4.20;;;3.00;;
58661;SDS011;44432;49.786;22.760;2023-07-16T14:37:24;3.50;;;2.40;;
58661;SDS011;44432;49.786;22.760;2023-07-16T14:39:55;3.30;;;2.30;;
58661;SDS011;44432;49.786;22.760;2023-07-16T14:42:26;4.30;;;2.40;;
58661;SDS011;44432;49.786;22.760;2023-07-16T14:44:58;4.90;;;2.50;;
58661;SDS011;44432;49.786;22.760;2023-07-16T14:49:59;6.20;;;2.10;;
58661;SDS011;44432;49.786;22.760;2023-07-16T14:52:30;4.50;;;3.20;;
58661;SDS011;44432;49.786;22.760;2023-07-16T14:55:03;3.30;;;2.30;;
58661;SDS011;44432;49.786;22.760;2023-07-16T14:57:36;4.50;;;2.50;;
58661;SDS011;44432;49.786;22.760;2023-07-16T15:00:08;4.90;;;2.40;;
58661;SDS011;44432;49.786;22.760;2023-07-16T15:02:42;4.20;;;2.60;;
58661;SDS011;44432;49.786;22.760;2023-07-16T15:05:12;8.80;;;3.00;;
58661;SDS011;44432;49.786;22.760;2023-07-16T15:07:43;5.50;;;3.10;;
58661;SDS011;44432;49.786;22.760;2023-07-16T15:10:14;2.80;;;2.60;;